createdAt,value
2018-06-14T00:00:54.204Z,16.50
2018-06-14T00:05:50.892Z,16.40
2018-06-14T00:08:19.344Z,16.40
2018-06-14T00:10:47.826Z,16.40
2018-06-14T00:13:16.261Z,16.40
2018-06-14T00:15:44.778Z,16.30
2018-06-14T00:18:13.239Z,16.40
2018-06-14T00:20:41.672Z,16.40
2018-06-14T00:23:10.146Z,16.40
2018-06-14T00:25:38.632Z,16.30
2018-06-14T00:28:07.113Z,16.40
2018-06-14T00:30:35.561Z,16.40
2018-06-14T00:33:04.042Z,16.40
2018-06-14T00:35:32.474Z,16.40
2018-06-14T00:38:00.955Z,16.40
2018-06-14T00:40:29.458Z,16.40
2018-06-14T00:42:57.981Z,16.40
2018-06-14T00:45:26.406Z,16.40
2018-06-14T00:47:54.837Z,16.40
2018-06-14T00:50:23.325Z,16.40
2018-06-14T00:52:51.787Z,16.40
2018-06-14T00:55:20.271Z,16.40
2018-06-14T00:57:48.694Z,16.40
2018-06-14T01:00:17.184Z,16.40
2018-06-14T01:02:45.633Z,16.40
2018-06-14T01:05:14.072Z,16.40
2018-06-14T01:07:42.558Z,16.30
2018-06-14T01:10:11.068Z,16.40
2018-06-14T01:12:39.513Z,16.40
2018-06-14T01:15:08.025Z,16.40
2018-06-14T01:17:36.460Z,16.30
2018-06-14T01:20:05.257Z,16.30
2018-06-14T01:22:33.764Z,16.30
2018-06-14T01:25:02.234Z,16.30
2018-06-14T01:27:30.691Z,16.30
2018-06-14T01:29:59.225Z,16.30
2018-06-14T01:32:27.674Z,16.30
2018-06-14T01:34:56.129Z,16.30
2018-06-14T01:37:35.788Z,16.20
2018-06-14T01:40:04.250Z,16.20
2018-06-14T01:42:32.688Z,16.20
2018-06-14T01:45:01.136Z,16.20
2018-06-14T01:47:29.758Z,16.20
2018-06-14T01:49:58.224Z,16.20
2018-06-14T01:52:26.768Z,16.10
2018-06-14T01:54:55.291Z,16.10
2018-06-14T01:57:23.736Z,16.10
2018-06-14T01:59:52.372Z,16.10
2018-06-14T02:02:20.877Z,16.10
2018-06-14T02:04:49.312Z,16.10
2018-06-14T02:07:17.785Z,16.10
2018-06-14T02:09:46.232Z,16.10
2018-06-14T02:12:14.677Z,16.10
2018-06-14T02:14:43.199Z,16.00
2018-06-14T02:17:11.665Z,16.00
2018-06-14T02:19:40.096Z,16.00
2018-06-14T02:24:36.743Z,16.00
2018-06-14T02:27:05.265Z,16.00
2018-06-14T02:29:33.786Z,16.00
2018-06-14T02:32:02.353Z,16.00
2018-06-14T02:34:30.809Z,16.10
2018-06-14T02:36:59.312Z,16.00
2018-06-14T02:39:27.744Z,16.00
2018-06-14T02:41:56.213Z,16.00
2018-06-14T02:44:24.741Z,16.00
2018-06-14T02:46:53.190Z,16.00
2018-06-14T02:49:21.690Z,16.00
2018-06-14T02:51:50.115Z,16.00
2018-06-14T02:54:18.566Z,16.00
2018-06-14T02:56:47.063Z,15.90
2018-06-14T02:59:15.524Z,15.90
2018-06-14T03:01:44.098Z,16.00
2018-06-14T03:04:12.508Z,16.00
2018-06-14T03:06:40.925Z,16.00
2018-06-14T03:09:10.009Z,16.00
2018-06-14T03:11:38.445Z,16.00
2018-06-14T03:14:08.006Z,16.00
2018-06-14T03:16:36.470Z,16.00
2018-06-14T03:19:04.929Z,16.00
2018-06-14T03:21:33.388Z,16.00
2018-06-14T03:24:01.852Z,16.00
2018-06-14T03:26:30.305Z,16.00
2018-06-14T03:28:58.758Z,16.00
2018-06-14T03:31:27.231Z,16.00
2018-06-14T03:33:55.764Z,16.00
2018-06-14T03:36:24.257Z,16.10
2018-06-14T03:38:52.697Z,16.10
2018-06-14T03:41:21.167Z,16.00
2018-06-14T03:43:49.661Z,16.10
2018-06-14T03:46:18.105Z,16.10
2018-06-14T03:48:46.519Z,16.00
2018-06-14T03:51:15.018Z,16.00
2018-06-14T03:53:43.534Z,16.00
2018-06-14T03:56:11.996Z,16.00
2018-06-14T03:58:40.428Z,16.00
2018-06-14T04:01:08.945Z,16.10
2018-06-14T04:03:37.368Z,16.00
2018-06-14T04:06:05.896Z,16.10
2018-06-14T04:08:34.369Z,16.00
2018-06-14T04:11:02.785Z,16.10
2018-06-14T04:13:31.262Z,16.00
2018-06-14T04:15:59.835Z,16.10
2018-06-14T04:18:28.343Z,16.10
2018-06-14T04:20:56.757Z,16.10
2018-06-14T04:23:25.204Z,16.10
2018-06-14T04:25:53.726Z,16.00
2018-06-14T04:28:22.157Z,16.10
2018-06-14T04:30:50.568Z,16.10
2018-06-14T04:33:19.141Z,16.10
2018-06-14T04:35:47.603Z,16.10
2018-06-14T04:38:15.992Z,16.10
2018-06-14T04:40:44.447Z,16.20
2018-06-14T04:43:12.824Z,16.20
2018-06-14T04:45:41.224Z,16.20
2018-06-14T04:48:09.629Z,16.20
2018-06-14T04:50:38.008Z,16.20
2018-06-14T04:53:06.380Z,16.20
2018-06-14T05:06:58.563Z,16.30
2018-06-14T05:09:27.180Z,16.30
2018-06-14T05:11:55.676Z,16.30
2018-06-14T05:14:24.282Z,16.30
2018-06-14T05:16:53.153Z,16.40
2018-06-14T05:19:21.726Z,16.40
2018-06-14T05:21:50.312Z,16.40
2018-06-14T05:24:19.013Z,16.40
2018-06-14T05:26:47.478Z,16.40
2018-06-14T05:29:15.990Z,16.40
2018-06-14T05:31:44.525Z,16.40
2018-06-14T05:34:12.998Z,16.30
2018-06-14T05:36:41.614Z,16.30
2018-06-14T05:39:12.046Z,16.50
2018-06-14T05:41:41.455Z,16.50
2018-06-14T05:44:10.124Z,16.50
2018-06-14T05:46:39.401Z,16.60
2018-06-14T05:49:07.997Z,16.60
2018-06-14T05:51:36.468Z,16.70
2018-06-14T05:54:04.901Z,16.70
2018-06-14T05:56:33.364Z,16.70
2018-06-14T05:59:01.814Z,16.70
2018-06-14T06:01:30.301Z,16.70
2018-06-14T06:03:58.892Z,16.70
2018-06-14T06:06:27.364Z,16.80
2018-06-14T06:11:24.249Z,16.80
2018-06-14T06:13:52.862Z,16.80
2018-06-14T06:16:21.332Z,16.80
2018-06-14T06:18:49.925Z,16.80
2018-06-14T06:21:18.358Z,16.80
2018-06-14T06:23:46.838Z,16.80
2018-06-14T06:26:15.567Z,16.90
2018-06-14T06:28:44.031Z,16.90
2018-06-14T06:31:12.699Z,16.90
2018-06-14T06:33:41.240Z,16.90
2018-06-14T06:36:09.745Z,17.00
2018-06-14T06:38:38.298Z,17.10
2018-06-14T06:41:06.963Z,17.20
2018-06-14T06:43:35.726Z,17.20
2018-06-14T06:46:04.226Z,17.30
2018-06-14T06:48:32.744Z,17.30
2018-06-14T06:51:01.329Z,17.40
2018-06-14T06:53:29.894Z,17.40
2018-06-14T06:55:58.619Z,17.40
2018-06-14T06:58:27.270Z,17.50
2018-06-14T07:03:23.945Z,17.40
2018-06-14T07:05:52.589Z,17.50
2018-06-14T07:08:21.068Z,17.50
2018-06-14T07:10:49.492Z,17.50
2018-06-14T07:13:18.062Z,17.50
2018-06-14T07:15:46.500Z,17.60
2018-06-14T07:18:15.017Z,17.70
2018-06-14T07:20:43.591Z,17.70
2018-06-14T07:23:12.231Z,17.70
2018-06-14T07:25:40.794Z,17.70
2018-06-14T07:28:09.399Z,17.70
2018-06-14T07:30:37.999Z,17.80
2018-06-14T07:33:06.453Z,17.80
2018-06-14T07:35:34.972Z,17.80
2018-06-14T07:38:03.453Z,17.90
2018-06-14T07:40:31.951Z,17.90
2018-06-14T07:43:00.516Z,17.90
2018-06-14T07:45:29.023Z,17.90
2018-06-14T07:47:58.401Z,17.90
2018-06-14T07:50:26.824Z,18.00
2018-06-14T07:52:55.311Z,18.00
2018-06-14T07:55:23.880Z,18.00
2018-06-14T07:57:52.373Z,18.00
2018-06-14T08:00:21.325Z,18.10
2018-06-14T08:02:49.759Z,18.10
2018-06-14T08:05:18.245Z,18.20
2018-06-14T08:07:46.666Z,18.10
2018-06-14T08:10:15.241Z,18.20
2018-06-14T08:12:43.741Z,18.30
2018-06-14T08:15:12.665Z,18.40
2018-06-14T08:17:41.226Z,18.60
2018-06-14T08:20:09.723Z,18.40
2018-06-14T08:22:38.695Z,18.50
2018-06-14T08:27:35.240Z,18.60
2018-06-14T08:30:03.773Z,18.60
2018-06-14T08:32:32.205Z,18.70
2018-06-14T08:35:00.817Z,18.60
2018-06-14T08:37:30.558Z,18.60
2018-06-14T08:39:59.582Z,18.70
2018-06-14T08:42:29.098Z,18.90
2018-06-14T08:44:57.936Z,19.00
2018-06-14T08:47:26.924Z,19.00
2018-06-14T08:49:55.830Z,19.20
2018-06-14T08:52:24.663Z,19.40
2018-06-14T08:54:53.446Z,19.50
2018-06-14T08:57:21.994Z,19.40
2018-06-14T08:59:50.712Z,19.50
2018-06-14T09:02:19.457Z,19.60
2018-06-14T09:04:48.012Z,19.70
2018-06-14T09:07:16.477Z,19.70
2018-06-14T09:09:44.892Z,19.80
2018-06-14T09:12:13.454Z,20.00
2018-06-14T09:14:41.931Z,20.10
2018-06-14T09:17:10.411Z,20.30
2018-06-14T09:22:07.268Z,20.40
2018-06-14T09:24:35.693Z,20.50
2018-06-14T09:27:04.612Z,20.40
2018-06-14T09:29:33.367Z,20.50
2018-06-14T09:32:02.069Z,20.60
2018-06-14T09:34:30.689Z,20.70
2018-06-14T09:36:59.415Z,20.80
2018-06-14T09:39:27.900Z,20.90
2018-06-14T09:41:56.338Z,20.90
2018-06-14T09:44:24.916Z,20.80
2018-06-14T09:46:53.439Z,20.80
2018-06-14T09:49:22.081Z,21.00
2018-06-14T09:51:51.013Z,21.10
2018-06-14T09:54:19.685Z,21.00
2018-06-14T09:56:48.227Z,21.30
2018-06-14T09:59:16.687Z,21.20
2018-06-14T10:01:45.168Z,21.10
2018-06-14T10:04:13.851Z,21.10
2018-06-14T10:06:42.395Z,21.20
2018-06-14T10:09:12.466Z,21.20
2018-06-14T10:11:41.190Z,21.30
2018-06-14T10:14:09.970Z,21.30
2018-06-14T10:16:38.467Z,21.30
2018-06-14T10:19:06.895Z,21.40
2018-06-14T10:21:35.333Z,21.20
2018-06-14T10:24:04.128Z,21.20
2018-06-14T10:26:32.774Z,20.80
2018-06-14T10:29:01.500Z,20.60
2018-06-14T10:31:30.045Z,20.50
2018-06-14T10:33:58.557Z,20.40
2018-06-14T10:36:27.081Z,20.40
2018-06-14T10:38:55.833Z,20.40
2018-06-14T10:52:38.602Z,20.30
2018-06-14T11:13:53.545Z,19.90
2018-06-14T11:16:43.839Z,19.90
2018-06-14T11:22:22.796Z,20.00
2018-06-14T11:25:09.700Z,20.00
2018-06-14T11:50:42.947Z,20.50
2018-06-14T11:53:12.079Z,20.60
2018-06-14T11:55:40.568Z,20.70
2018-06-14T11:58:09.320Z,20.70
2018-06-14T12:00:37.978Z,20.80
2018-06-14T12:03:06.558Z,20.90
2018-06-14T12:05:35.253Z,20.90
2018-06-14T12:08:03.910Z,20.90
2018-06-14T12:10:32.371Z,21.00
2018-06-14T12:13:00.839Z,21.00
2018-06-14T12:15:29.590Z,21.20
2018-06-14T12:17:58.009Z,21.30
2018-06-14T12:20:26.465Z,21.30
2018-06-14T12:22:55.033Z,21.30
2018-06-14T12:25:23.644Z,21.50
2018-06-14T12:27:52.373Z,21.50
2018-06-14T12:30:21.278Z,21.70
2018-06-14T12:32:49.734Z,21.80
2018-06-14T12:35:18.217Z,21.90
2018-06-14T12:37:46.785Z,21.90
2018-06-14T12:40:15.197Z,21.90
2018-06-14T12:42:43.697Z,22.00
2018-06-14T12:45:12.177Z,22.10
2018-06-14T12:47:41.063Z,22.10
2018-06-14T12:50:10.046Z,22.10
2018-06-14T12:52:38.718Z,22.30
2018-06-14T12:55:07.239Z,22.40
2018-06-14T12:57:36.032Z,22.50
2018-06-14T13:00:04.708Z,22.50
2018-06-14T13:02:33.196Z,22.50
2018-06-14T13:05:01.684Z,22.50
2018-06-14T13:07:30.177Z,22.50
2018-06-14T13:09:58.701Z,22.40
2018-06-14T13:12:27.268Z,22.50
2018-06-14T13:14:55.870Z,22.30
2018-06-14T13:17:24.878Z,22.40
2018-06-14T13:19:53.593Z,22.40
2018-06-14T13:22:22.208Z,22.50
2018-06-14T13:24:50.749Z,22.60
2018-06-14T13:27:19.441Z,22.80
2018-06-14T13:29:47.975Z,22.90
2018-06-14T13:32:16.475Z,23.00
2018-06-14T13:34:45.059Z,23.00
2018-06-14T13:37:13.757Z,23.10
2018-06-14T13:39:42.326Z,23.10
2018-06-14T13:42:10.885Z,23.20
2018-06-14T13:44:39.385Z,23.10
2018-06-14T13:47:08.128Z,23.20
2018-06-14T13:49:36.587Z,23.20
2018-06-14T13:52:05.834Z,23.10
2018-06-14T13:54:34.382Z,23.30
2018-06-14T13:57:02.991Z,23.30
2018-06-14T13:59:32.640Z,23.40
2018-06-14T14:02:01.531Z,23.40
2018-06-14T14:04:30.181Z,23.30
2018-06-14T14:07:04.886Z,23.20
2018-06-14T14:09:35.679Z,23.20
2018-06-14T14:12:04.226Z,23.20
2018-06-14T14:14:33.208Z,23.20
2018-06-14T14:17:01.694Z,23.20
2018-06-14T14:19:30.320Z,23.20
2018-06-14T14:21:59.421Z,23.20
2018-06-14T14:24:27.938Z,23.10
2018-06-14T14:26:56.838Z,23.20
2018-06-14T14:29:26.083Z,23.20
2018-06-14T14:31:54.875Z,23.20
2018-06-14T14:34:23.865Z,23.10
2018-06-14T14:36:52.724Z,23.10
2018-06-14T14:39:21.205Z,23.00
2018-06-14T14:41:49.918Z,23.10
2018-06-14T14:44:18.776Z,23.10
2018-06-14T14:49:15.732Z,23.10
2018-06-14T14:51:44.488Z,23.10
2018-06-14T14:54:13.300Z,23.10
2018-06-14T14:56:42.265Z,23.00
2018-06-14T14:59:10.987Z,23.10
2018-06-14T15:01:39.749Z,23.10
2018-06-14T15:04:08.437Z,23.10
2018-06-14T15:06:40.541Z,23.10
2018-06-14T15:09:15.677Z,23.20
2018-06-14T15:11:44.149Z,23.20
2018-06-14T15:14:12.595Z,23.20
2018-06-14T15:16:41.124Z,23.20
2018-06-14T15:19:09.552Z,23.30
2018-06-14T15:21:38.023Z,23.30
2018-06-14T15:24:06.560Z,23.30
2018-06-14T15:26:36.008Z,23.30
2018-06-14T15:29:04.490Z,23.10
2018-06-14T15:31:32.955Z,23.10
2018-06-14T15:34:01.365Z,23.10
2018-06-14T15:36:29.816Z,23.10
2018-06-14T15:38:58.312Z,23.10
2018-06-14T15:41:27.213Z,23.10
2018-06-14T15:43:55.700Z,23.10
2018-06-14T15:46:24.178Z,23.10
2018-06-14T15:48:52.746Z,23.10
2018-06-14T15:51:21.282Z,23.10
2018-06-14T15:53:49.746Z,23.10
2018-06-14T15:56:42.427Z,23.10
2018-06-14T15:59:13.182Z,23.10
2018-06-14T16:04:12.798Z,23.00
2018-06-14T16:06:41.293Z,22.90
2018-06-14T16:09:10.924Z,22.80
2018-06-14T16:11:39.357Z,22.80
2018-06-14T16:14:08.453Z,22.70
2018-06-14T16:16:36.898Z,22.70
2018-06-14T16:19:05.570Z,22.60
2018-06-14T16:21:34.571Z,22.50
2018-06-14T16:24:03.092Z,22.50
2018-06-14T16:26:31.612Z,22.50
2018-06-14T16:29:00.202Z,22.40
2018-06-14T16:31:28.677Z,22.40
2018-06-14T16:33:57.153Z,22.40
2018-06-14T16:36:25.689Z,22.30
2018-06-14T16:38:54.173Z,22.30
2018-06-14T16:41:22.668Z,22.30
2018-06-14T16:43:51.226Z,22.40
2018-06-14T16:46:19.732Z,22.30
2018-06-14T16:48:48.206Z,22.30
2018-06-14T16:51:17.415Z,22.30
2018-06-14T16:53:46.034Z,22.20
2018-06-14T16:56:14.490Z,22.20
2018-06-14T16:58:42.969Z,22.10
2018-06-14T17:01:11.495Z,22.10
2018-06-14T17:03:40.477Z,22.00
2018-06-14T17:06:09.006Z,22.00
2018-06-14T17:08:37.458Z,22.00
2018-06-14T17:11:06.003Z,22.00
2018-06-14T17:13:34.454Z,22.00
2018-06-14T17:16:03.065Z,21.90
2018-06-14T17:18:31.489Z,21.90
2018-06-14T17:21:03.633Z,21.90
2018-06-14T17:23:32.539Z,21.90
2018-06-14T17:26:02.029Z,21.90
2018-06-14T17:28:30.740Z,21.80
2018-06-14T17:30:59.168Z,21.80
2018-06-14T17:33:27.656Z,21.80
2018-06-14T17:35:56.106Z,21.80
2018-06-14T17:38:24.575Z,21.80
2018-06-14T17:40:53.086Z,21.80
2018-06-14T17:43:21.614Z,21.80
2018-06-14T17:45:50.157Z,21.80
2018-06-14T17:48:18.815Z,21.70
2018-06-14T17:50:47.293Z,21.70
2018-06-14T17:53:15.783Z,21.70
2018-06-14T17:55:44.320Z,21.70
2018-06-14T17:58:12.780Z,21.70
2018-06-14T18:00:41.229Z,21.60
2018-06-14T18:03:09.739Z,21.60
2018-06-14T18:05:38.246Z,21.60
2018-06-14T18:08:06.716Z,21.50
2018-06-14T18:10:35.188Z,21.40
2018-06-14T18:13:03.704Z,21.40
2018-06-14T18:15:32.133Z,21.40
2018-06-14T18:18:00.650Z,21.30
2018-06-14T18:20:29.214Z,21.30
2018-06-14T18:22:57.667Z,21.20
2018-06-14T18:25:26.112Z,21.00
2018-06-14T18:27:54.619Z,21.00
2018-06-14T18:30:23.054Z,20.90
2018-06-14T18:35:19.801Z,20.80
2018-06-14T18:37:48.342Z,20.70
2018-06-14T18:40:16.825Z,20.60
2018-06-14T18:42:45.273Z,20.50
2018-06-14T18:45:13.852Z,20.40
2018-06-14T18:47:42.288Z,20.30
2018-06-14T18:50:10.724Z,20.20
2018-06-14T18:52:39.238Z,20.10
2018-06-14T18:55:07.695Z,20.00
2018-06-14T18:57:36.194Z,19.90
2018-06-14T19:00:05.099Z,19.80
2018-06-14T19:02:33.576Z,19.70
2018-06-14T19:05:02.104Z,19.60
2018-06-14T19:07:30.612Z,19.50
2018-06-14T19:09:59.085Z,19.40
2018-06-14T19:12:27.572Z,19.30
2018-06-14T19:14:56.071Z,19.20
2018-06-14T19:17:24.631Z,19.20
2018-06-14T19:19:53.113Z,19.10
2018-06-14T19:22:21.613Z,19.00
2018-06-14T19:24:50.181Z,18.90
2018-06-14T19:27:18.648Z,18.80
2018-06-14T19:29:47.146Z,18.80
2018-06-14T19:32:15.883Z,18.70
2018-06-14T19:34:44.409Z,18.60
2018-06-14T19:37:12.913Z,18.50
2018-06-14T19:39:41.396Z,18.50
2018-06-14T19:42:09.851Z,18.40
2018-06-14T19:44:38.345Z,18.30
2018-06-14T19:47:06.820Z,18.30
2018-06-14T19:49:35.310Z,18.20
2018-06-14T19:52:03.920Z,18.20
2018-06-14T19:54:32.433Z,18.10
2018-06-14T19:57:00.914Z,18.10
2018-06-14T19:59:29.458Z,18.00
2018-06-14T20:01:57.961Z,18.00
2018-06-14T20:04:26.554Z,17.90
2018-06-14T20:15:31.172Z,17.70
2018-06-14T20:17:59.725Z,17.60
2018-06-14T20:20:28.362Z,17.60
2018-06-14T20:22:56.847Z,17.50
2018-06-14T20:25:25.342Z,17.50
2018-06-14T20:27:54.027Z,17.50
2018-06-14T20:30:22.548Z,17.40
2018-06-14T20:32:51.049Z,17.40
2018-06-14T20:35:19.532Z,17.30
2018-06-14T20:37:48.025Z,17.30
2018-06-14T20:40:16.818Z,17.30
2018-06-14T20:45:13.458Z,17.30
2018-06-14T20:47:41.964Z,17.30
2018-06-14T20:50:10.425Z,17.20
2018-06-14T20:52:38.929Z,17.20
2018-06-14T20:55:07.617Z,17.20
2018-06-14T20:57:36.385Z,17.20
2018-06-14T21:00:04.938Z,17.10
2018-06-14T21:02:33.436Z,17.10
2018-06-14T21:05:01.949Z,17.00
2018-06-14T21:07:30.401Z,17.00
2018-06-14T21:09:58.989Z,17.00
2018-06-14T21:12:27.835Z,16.90
2018-06-14T21:14:56.286Z,16.90
2018-06-14T21:19:53.321Z,16.80
2018-06-14T21:22:21.761Z,16.80
2018-06-14T21:24:50.305Z,16.80
2018-06-14T21:27:18.794Z,16.70
2018-06-14T21:29:47.252Z,16.70
2018-06-14T21:32:15.757Z,16.60
2018-06-14T21:34:44.239Z,16.60
2018-06-14T21:37:12.737Z,16.60
2018-06-14T21:39:41.352Z,16.60
2018-06-14T21:42:09.800Z,16.60
2018-06-14T21:44:38.253Z,16.50
2018-06-14T21:47:06.706Z,16.60
2018-06-14T21:49:35.151Z,16.50
2018-06-14T21:52:03.742Z,16.50
2018-06-14T21:54:32.204Z,16.50
2018-06-14T21:59:28.968Z,16.50
2018-06-14T22:01:57.438Z,16.50
2018-06-14T22:04:25.894Z,16.40
2018-06-14T22:06:54.382Z,16.40
2018-06-14T22:09:22.836Z,16.40
2018-06-14T22:11:51.301Z,16.40
2018-06-14T22:14:19.802Z,16.40
2018-06-14T22:16:48.262Z,16.40
2018-06-14T22:19:16.733Z,16.40
2018-06-14T22:21:45.244Z,16.30
2018-06-14T22:24:13.688Z,16.30
2018-06-14T22:26:42.148Z,16.30
2018-06-14T22:29:10.594Z,16.30
2018-06-14T22:31:39.088Z,16.30
2018-06-14T22:34:18.695Z,16.30
2018-06-14T22:36:47.198Z,16.20
2018-06-14T22:39:15.674Z,16.20
2018-06-14T22:41:44.126Z,16.20
2018-06-14T22:44:12.735Z,16.30
2018-06-14T22:46:41.184Z,16.20
2018-06-14T22:49:09.712Z,16.20
2018-06-14T22:51:59.884Z,16.20
2018-06-14T22:54:28.367Z,16.30
2018-06-14T22:56:56.898Z,16.20
2018-06-14T22:59:25.448Z,16.20
2018-06-14T23:01:53.889Z,16.20
2018-06-14T23:04:24.402Z,16.20
2018-06-14T23:06:52.976Z,16.20
2018-06-14T23:10:37.597Z,16.30
2018-06-14T23:13:10.291Z,16.20
2018-06-14T23:18:39.197Z,16.20
2018-06-14T23:21:20.528Z,16.20
2018-06-14T23:29:30.918Z,16.20
2018-06-14T23:32:13.675Z,16.20
2018-06-14T23:34:47.304Z,16.20
2018-06-14T23:37:28.245Z,16.20
2018-06-14T23:43:01.235Z,16.10
2018-06-14T23:45:45.675Z,16.10
2018-06-14T23:48:19.866Z,16.10
2018-06-14T23:50:58.773Z,16.10
2018-06-14T23:53:36.126Z,16.20
2018-06-14T23:56:12.886Z,16.10
2018-06-14T23:59:02.745Z,16.10
